Hardisty, Canada
Current Conditions -  °F | °C
As of 3:50 AM on Thursday 27 Nov 2014 (Local Time) from CYLL Reporting Station
Overcast Overcast  
Wind Chill:   Ceiling: 700
Heat Index: 12°   Visibility: 9mi
Dew Point: 10°   Wind: 9mph
Humidity: 92%   Direction: 110°ESE
Pressure: 30.06"   Gusts: NA
Location:  52.68°N, 111.3°W
Report Text: CYLL 271050Z AUTO 11008KT 9SM OVC007 M11/M12 A3006 RMK SLP232
Loading
Personal Weather Stations






























Interactive Weather Map New forecast layout! Learn more

10-Day Weather Forecast

Advertisements
Track Severe Weather on mobile